Portlaw, Ireland
Current Conditions -  °F | °C
As of 4:00 PM on Thursday 23 Oct 2014 (Local Time) from EIWF Reporting Station
Scattered Clouds Scattered Clouds  
Wind Chill: 57°   Ceiling: Unl
Heat Index: 57°   Visibility: 6mi
Dew Point: 55°   Wind: 16mph
Humidity: 94%   Direction: 250°WSW
Pressure: 29.88"   Gusts: NA
Location:  52.29°N, 7.31°W
Report Text: EIWF 231500Z 25014KT 210V300 9999 SCT007 SCT031 14/13 Q1012
Loading
Personal Weather Stations






























Interactive Weather Map
Tropical Storm Tracking
New forecast layout! Learn more

10-Day Weather Forecast

Advertisements
Track Severe Weather on mobile